Time,TemperatureF,DewpointF,PressureIn,WindDirection,WindDirectionDegrees,WindSpeedMPH,WindSpeedGustMPH,Humidity,HourlyPrecipIn,Conditions,Clouds,dailyrainin,SolarRadiationWatts/m^2,SoftwareType,DateUTC
2013-03-15 00:03:00,69.1,63.0,29.99,SE,136,0.0,0.0,81,0.00,,,0.00,0,weatherlink.com 1.10,2013-03-15 10:03:00,
2013-03-15 00:18:00,68.2,63.0,29.98,SE,136,0.0,0.0,83,0.00,,,0.00,0,weatherlink.com 1.10,2013-03-15 10:18:00,
2013-03-15 00:33:00,67.7,62.0,29.98,SE,136,0.0,0.0,83,0.00,,,0.00,0,weatherlink.com 1.10,2013-03-15 10:33:00,
2013-03-15 00:48:00,67.8,62.0,29.98,SE,138,0.0,3.0,82,0.00,,,0.00,0,weatherlink.com 1.10,2013-03-15 10:48:00,
2013-03-15 01:03:00,68.3,62.0,29.97,SE,139,0.0,1.0,79,0.00,,,0.00,0,weatherlink.com 1.10,2013-03-15 11:03:00,
2013-03-15 01:18:00,68.7,62.0,29.97,WSW,256,0.0,3.0,79,0.00,,,0.00,0,weatherlink.com 1.10,2013-03-15 11:18:00,
2013-03-15 01:33:00,68.7,62.0,29.96,South,188,1.0,2.0,78,0.00,,,0.00,0,weatherlink.com 1.10,2013-03-15 11:33:00,
2013-03-15 01:48:00,68.5,61.0,29.96,NW,322,0.0,3.0,78,0.00,,,0.00,0,weatherlink.com 1.10,2013-03-15 11:48:00,
2013-03-15 02:03:00,68.3,61.0,29.95,South,171,0.0,2.0,78,0.00,,,0.00,0,weatherlink.com 1.10,2013-03-15 12:03:00,
2013-03-15 02:18:00,68.3,61.0,29.95,WSW,243,0.0,2.0,78,0.00,,,0.00,0,weatherlink.com 1.10,2013-03-15 12:18:00,
2013-03-15 02:33:00,68.5,61.0,29.95,WSW,243,0.0,1.0,77,0.00,,,0.00,0,weatherlink.com 1.10,2013-03-15 12:33:00,
2013-03-15 02:48:00,68.6,61.0,29.95,WSW,243,0.0,1.0,77,0.00,,,0.00,0,weatherlink.com 1.10,2013-03-15 12:48:00,
2013-03-15 03:03:00,68.2,61.0,29.95,WSW,243,0.0,0.0,78,0.00,,,0.00,0,weatherlink.com 1.10,2013-03-15 13:03:00,
2013-03-15 03:18:00,67.7,61.0,29.94,WSW,243,0.0,0.0,79,0.00,,,0.00,0,weatherlink.com 1.10,2013-03-15 13:18:00,
2013-03-15 03:33:00,67.3,61.0,29.94,WSW,243,0.0,0.0,80,0.00,,,0.00,0,weatherlink.com 1.10,2013-03-15 13:33:00,
2013-03-15 03:48:00,67.1,61.0,29.94,WSW,243,0.0,0.0,81,0.00,,,0.00,0,weatherlink.com 1.10,2013-03-15 13:48:00,
2013-03-15 04:03:00,67.1,61.0,29.93,SSW,208,0.0,1.0,81,0.00,,,0.00,0,weatherlink.com 1.10,2013-03-15 14:03:00,
2013-03-15 04:18:00,67.1,61.0,29.93,SSW,208,0.0,0.0,80,0.00,,,0.00,0,weatherlink.com 1.10,2013-03-15 14:18:00,
2013-03-15 04:33:00,67.4,60.0,29.93,WNW,295,0.0,4.0,78,0.00,,,0.00,0,weatherlink.com 1.10,2013-03-15 14:33:00,
2013-03-15 04:48:00,67.5,61.0,29.93,WNW,295,0.0,1.0,79,0.00,,,0.00,0,weatherlink.com 1.10,2013-03-15 14:48:00,
2013-03-15 05:03:00,67.3,61.0,29.93,WNW,295,0.0,0.0,79,0.00,,,0.00,0,weatherlink.com 1.10,2013-03-15 15:03:00,
2013-03-15 05:18:00,66.8,60.0,29.93,WNW,295,0.0,0.0,80,0.00,,,0.00,0,weatherlink.com 1.10,2013-03-15 15:18:00,
2013-03-15 05:33:00,66.6,61.0,29.93,WNW,295,0.0,0.0,81,0.00,,,0.00,0,weatherlink.com 1.10,2013-03-15 15:33:00,
2013-03-15 05:49:00,66.1,60.0,29.93,WNW,295,0.0,0.0,81,0.00,,,0.00,0,weatherlink.com 1.10,2013-03-15 15:49:00,
2013-03-15 06:04:00,65.9,60.0,29.94,WNW,295,0.0,0.0,80,0.00,,,0.00,0,weatherlink.com 1.10,2013-03-15 16:04:00,
2013-03-15 06:19:00,65.9,59.0,29.94,WNW,295,0.0,0.0,79,0.00,,,0.00,0,weatherlink.com 1.10,2013-03-15 16:19:00,
2013-03-15 06:34:00,65.9,59.0,29.95,WNW,295,0.0,0.0,79,0.00,,,0.00,0,weatherlink.com 1.10,2013-03-15 16:34:00,
2013-03-15 06:49:00,65.8,59.0,29.95,WNW,295,0.0,1.0,79,0.00,,,0.00,9,weatherlink.com 1.10,2013-03-15 16:49:00,
2013-03-15 07:19:00,66.4,59.0,29.96,SSE,156,0.0,3.0,77,0.00,,,0.00,83,weatherlink.com 1.10,2013-03-15 17:19:00,
2013-03-15 07:34:00,69.2,60.0,29.95,ESE,108,0.0,3.0,73,0.00,,,0.00,151,weatherlink.com 1.10,2013-03-15 17:34:00,
2013-03-15 08:19:00,71.7,61.0,29.96,NW,306,2.0,5.0,70,0.00,,,0.00,353,weatherlink.com 1.10,2013-03-15 18:19:00,
2013-03-15 08:34:00,71.7,61.0,29.97,NW,317,2.0,6.0,69,0.00,,,0.00,415,weatherlink.com 1.10,2013-03-15 18:34:00,
2013-03-15 08:49:00,72.9,62.0,29.97,NW,308,1.0,5.0,68,0.00,,,0.00,478,weatherlink.com 1.10,2013-03-15 18:49:00,
2013-03-15 09:04:00,73.0,60.0,29.97,West,271,0.0,7.0,65,0.00,,,0.00,496,weatherlink.com 1.10,2013-03-15 19:04:00,
2013-03-15 09:19:00,74.5,62.0,29.97,NW,312,8.0,8.0,65,0.00,,,0.00,578,weatherlink.com 1.10,2013-03-15 19:19:00,
2013-03-15 09:34:00,74.9,62.0,29.96,SE,136,3.0,12.0,65,0.00,,,0.00,483,weatherlink.com 1.10,2013-03-15 19:34:00,
2013-03-15 09:49:00,76.7,60.0,29.96,ESE,121,0.0,6.0,57,0.00,,,0.00,671,weatherlink.com 1.10,2013-03-15 19:49:00,
2013-03-15 10:04:00,76.9,59.0,29.96,West,280,0.0,6.0,54,0.00,,,0.00,788,weatherlink.com 1.10,2013-03-15 20:04:00,
2013-03-15 10:19:00,76.8,62.0,29.96,SE,139,5.0,7.0,61,0.00,,,0.00,466,weatherlink.com 1.10,2013-03-15 20:19:00,
2013-03-15 10:34:00,76.2,60.0,29.96,NW,306,4.0,9.0,58,0.00,,,0.00,443,weatherlink.com 1.10,2013-03-15 20:34:00,
2013-03-15 10:49:00,75.7,61.0,29.96,NNW,333,2.0,8.0,61,0.00,,,0.00,482,weatherlink.com 1.10,2013-03-15 20:49:00,
2013-03-15 11:05:00,75.7,59.0,29.96,WNW,298,1.0,7.0,57,0.00,,,0.00,439,weatherlink.com 1.10,2013-03-15 21:05:00,
2013-03-15 11:20:00,76.9,60.0,29.96,NW,316,4.0,10.0,56,0.00,,,0.00,462,weatherlink.com 1.10,2013-03-15 21:20:00,
2013-03-15 11:35:00,77.7,62.0,29.96,ENE,67,2.0,5.0,58,0.00,,,0.00,775,weatherlink.com 1.10,2013-03-15 21:35:00,
2013-03-15 11:50:00,78.0,62.0,29.95,East,96,2.0,7.0,58,0.00,,,0.00,714,weatherlink.com 1.10,2013-03-15 21:50:00,
2013-03-15 12:05:00,78.3,62.0,29.95,NW,305,1.0,6.0,58,0.00,,,0.00,603,weatherlink.com 1.10,2013-03-15 22:05:00,
2013-03-15 12:20:00,78.9,63.0,29.94,NW,317,3.0,9.0,58,0.00,,,0.00,403,weatherlink.com 1.10,2013-03-15 22:20:00,
2013-03-15 12:35:00,79.2,61.0,29.93,NNW,337,1.0,6.0,53,0.00,,,0.00,751,weatherlink.com 1.10,2013-03-15 22:35:00,
2013-03-15 12:50:00,78.0,62.0,29.93,ESE,110,1.0,7.0,59,0.00,,,0.00,531,weatherlink.com 1.10,2013-03-15 22:50:00,
2013-03-15 13:05:00,76.2,64.0,29.92,ENE,57,1.0,4.0,65,0.00,,,0.00,383,weatherlink.com 1.10,2013-03-15 23:05:00,
2013-03-15 13:20:00,76.2,64.0,29.92,SSE,148,2.0,3.0,66,0.00,,,0.00,383,weatherlink.com 1.10,2013-03-15 23:20:00,
2013-03-15 13:35:00,75.5,64.0,29.91,SE,131,1.0,6.0,67,0.00,,,0.00,373,weatherlink.com 1.10,2013-03-15 23:35:00,
2013-03-15 13:50:00,75.2,63.0,29.91,SE,142,6.0,8.0,66,0.00,,,0.00,401,weatherlink.com 1.10,2013-03-15 23:50:00,
2013-03-15 14:05:00,75.4,64.0,29.90,SE,125,2.0,9.0,67,0.00,,,0.00,339,weatherlink.com 1.10,2013-03-16 00:05:00,
2013-03-15 14:20:00,75.2,65.0,29.90,NNW,339,1.0,6.0,70,0.00,,,0.00,330,weatherlink.com 1.10,2013-03-16 00:20:00,
2013-03-15 14:35:00,74.9,65.0,29.90,SE,137,2.0,6.0,71,0.00,,,0.00,334,weatherlink.com 1.10,2013-03-16 00:35:00,
2013-03-15 14:50:00,75.0,64.0,29.90,NW,324,1.0,7.0,68,0.00,,,0.00,269,weatherlink.com 1.10,2013-03-16 00:50:00,
2013-03-15 15:05:00,74.1,62.0,29.89,ESE,108,5.0,7.0,67,0.00,,,0.00,295,weatherlink.com 1.10,2013-03-16 01:05:00,
2013-03-15 15:20:00,74.3,63.0,29.89,SE,146,3.0,7.0,69,0.00,,,0.00,220,weatherlink.com 1.10,2013-03-16 01:20:00,
2013-03-15 15:35:00,74.1,65.0,29.89,NW,325,2.0,4.0,73,0.00,,,0.00,251,weatherlink.com 1.10,2013-03-16 01:35:00,
2013-03-15 15:50:00,75.0,65.0,29.89,NNE,17,2.0,4.0,72,0.00,,,0.00,304,weatherlink.com 1.10,2013-03-16 01:50:00,
2013-03-15 16:05:00,74.6,66.0,29.90,ESE,106,0.0,3.0,74,0.00,,,0.00,199,weatherlink.com 1.10,2013-03-16 02:05:00,
2013-03-15 16:20:00,73.8,65.0,29.89,NW,325,0.0,5.0,75,0.00,,,0.00,156,weatherlink.com 1.10,2013-03-16 02:20:00,
2013-03-15 16:35:00,73.4,66.0,29.90,NW,309,1.0,3.0,77,0.00,,,0.00,174,weatherlink.com 1.10,2013-03-16 02:35:00,
2013-03-15 16:50:00,74.1,66.0,29.89,NW,310,3.0,6.0,76,0.00,,,0.00,179,weatherlink.com 1.10,2013-03-16 02:50:00,
2013-03-15 17:05:00,74.2,64.0,29.90,NNW,331,3.0,4.0,71,0.00,,,0.00,165,weatherlink.com 1.10,2013-03-16 03:05:00,
2013-03-15 17:20:00,74.3,62.0,29.90,NNW,333,3.0,9.0,65,0.00,,,0.00,127,weatherlink.com 1.10,2013-03-16 03:20:00,
2013-03-15 17:35:00,73.7,61.0,29.90,NW,309,2.0,5.0,65,0.00,,,0.00,69,weatherlink.com 1.10,2013-03-16 03:35:00,
2013-03-15 17:50:00,73.5,61.0,29.91,NW,307,3.0,7.0,66,0.00,,,0.00,83,weatherlink.com 1.10,2013-03-16 03:50:00,
2013-03-15 18:05:00,73.3,61.0,29.91,NW,305,3.0,7.0,65,0.00,,,0.00,40,weatherlink.com 1.10,2013-03-16 04:05:00,
2013-03-15 18:20:00,73.0,60.0,29.91,WNW,293,6.0,8.0,64,0.00,,,0.00,23,weatherlink.com 1.10,2013-03-16 04:20:00,
2013-03-15 18:35:00,72.4,59.0,29.93,WNW,294,2.0,10.0,64,0.00,,,0.00,0,weatherlink.com 1.10,2013-03-16 04:35:00,
2013-03-15 18:50:00,72.1,59.0,29.92,WNW,292,4.0,6.0,63,0.00,,,0.00,0,weatherlink.com 1.10,2013-03-16 04:50:00,
2013-03-15 19:05:00,71.9,60.0,29.93,SE,131,0.0,3.0,66,0.00,,,0.00,0,weatherlink.com 1.10,2013-03-16 05:05:00,
2013-03-15 19:20:00,71.5,59.0,29.93,ESE,111,0.0,3.0,66,0.00,,,0.00,0,weatherlink.com 1.10,2013-03-16 05:20:00,
2013-03-15 19:35:00,71.3,59.0,29.94,East,87,0.0,5.0,66,0.00,,,0.00,0,weatherlink.com 1.10,2013-03-16 05:35:00,
2013-03-15 19:50:00,71.2,60.0,29.95,NW,309,1.0,4.0,67,0.00,,,0.00,0,weatherlink.com 1.10,2013-03-16 05:50:00,
2013-03-15 20:05:00,71.2,60.0,29.95,NW,312,0.0,3.0,67,0.00,,,0.00,0,weatherlink.com 1.10,2013-03-16 06:05:00,
2013-03-15 20:20:00,71.1,60.0,29.96,WNW,294,2.0,11.0,68,0.00,,,0.00,0,weatherlink.com 1.10,2013-03-16 06:20:00,
2013-03-15 20:35:00,70.4,63.0,29.96,WNW,294,2.0,9.0,77,0.00,,,0.00,0,weatherlink.com 1.10,2013-03-16 06:35:00,
2013-03-15 20:50:00,70.0,65.0,29.96,NW,322,0.0,10.0,83,0.00,,,0.00,0,weatherlink.com 1.10,2013-03-16 06:50:00,
2013-03-15 21:05:00,69.5,64.0,29.97,WNW,294,2.0,7.0,83,0.00,,,0.00,0,weatherlink.com 1.10,2013-03-16 07:05:00,
2013-03-15 21:20:00,69.5,64.0,29.98,NW,307,0.0,4.0,82,0.00,,,0.00,0,weatherlink.com 1.10,2013-03-16 07:20:00,
2013-03-15 21:35:00,69.5,64.0,29.97,NW,307,0.0,1.0,82,0.00,,,0.00,0,weatherlink.com 1.10,2013-03-16 07:35:00,
2013-03-15 21:50:00,69.5,63.0,29.98,NW,307,0.0,2.0,81,0.00,,,0.00,0,weatherlink.com 1.10,2013-03-16 07:50:00,
2013-03-15 22:05:00,69.4,63.0,29.98,NW,307,0.0,0.0,80,0.00,,,0.00,0,weatherlink.com 1.10,2013-03-16 08:05:00,
2013-03-15 22:20:00,69.4,63.0,29.98,NW,306,5.0,12.0,81,0.00,,,0.00,0,weatherlink.com 1.10,2013-03-16 08:20:00,
2013-03-15 22:35:00,68.7,64.0,29.98,WNW,299,2.0,11.0,86,0.00,,,0.00,0,weatherlink.com 1.10,2013-03-16 08:35:00,
2013-03-15 22:50:00,68.2,64.0,29.98,WNW,300,3.0,9.0,86,0.00,,,0.00,0,weatherlink.com 1.10,2013-03-16 08:50:00,
2013-03-15 23:05:00,67.6,64.0,29.98,WNW,296,4.0,14.0,87,0.00,,,0.00,0,weatherlink.com 1.10,2013-03-16 09:05:00,
2013-03-15 23:20:00,67.1,63.0,29.97,NW,308,3.0,11.0,87,0.00,,,0.00,0,weatherlink.com 1.10,2013-03-16 09:20:00,
2013-03-15 23:35:00,66.9,63.0,29.96,NW,312,0.0,8.0,87,0.00,,,0.00,0,weatherlink.com 1.10,2013-03-16 09:35:00,
2013-03-15 23:50:00,66.9,63.0,29.96,NW,307,0.0,3.0,87,0.00,,,0.00,0,weatherlink.com 1.10,2013-03-16 09:50:00,